Time;durP1;ratioP1;P1;durP2;ratioP2;P2;SDS_P1;SDS_P2;PMS_P1;PMS_P2;Temp;Humidity;BMP_temperature;BMP_pressure;BME280_temperature;BME280_humidity;BME280_pressure;Samples;Min_cycle;Max_cycle;Signal;HPM_P1;HPM_P2
2023/08/05 00:00:43;;;;;;;7.20;3.95;;;22.00;55.30;;;;;;4985656;28;114173;-78
2023/08/05 00:03:10;;;;;;;6.00;3.60;;;22.00;56.00;;;;;;4987649;28;114165;-78
2023/08/05 00:05:37;;;;;;;6.35;4.15;;;22.10;55.30;;;;;;4985473;28;114956;-78
2023/08/05 00:08:05;;;;;;;8.05;4.15;;;22.00;57.40;;;;;;4968540;28;115625;-79
2023/08/05 00:10:32;;;;;;;8.13;3.60;;;22.00;58.40;;;;;;4987151;28;114232;-78
2023/08/05 00:12:59;;;;;;;6.10;3.95;;;22.00;56.70;;;;;;4987447;28;114105;-76
2023/08/05 00:15:26;;;;;;;10.57;4.00;;;22.00;55.80;;;;;;4985343;28;115535;-79
2023/08/05 00:17:53;;;;;;;7.15;4.18;;;22.00;56.60;;;;;;4968976;28;114714;-78
2023/08/05 00:20:20;;;;;;;6.00;3.85;;;22.00;57.80;;;;;;4987051;28;114283;-77
2023/08/05 00:22:47;;;;;;;8.55;4.50;;;22.00;56.00;;;;;;4984894;28;114238;-77
2023/08/05 00:25:15;;;;;;;9.82;5.05;;;22.00;56.40;;;;;;4985877;28;114975;-77
2023/08/05 00:27:42;;;;;;;6.90;4.40;;;22.00;58.50;;;;;;4986310;28;115006;-77
2023/08/05 00:30:10;;;;;;;8.10;4.30;;;22.00;57.80;;;;;;4985712;28;114109;-77
2023/08/05 00:32:37;;;;;;;9.80;4.25;;;22.00;58.30;;;;;;4969821;28;114450;-78
2023/08/05 00:35:05;;;;;;;5.75;4.05;;;21.90;56.70;;;;;;4984967;28;116351;-78
2023/08/05 00:37:32;;;;;;;7.35;4.95;;;21.90;56.90;;;;;;4984729;28;114572;-78
2023/08/05 00:40:00;;;;;;;8.88;5.43;;;21.80;57.90;;;;;;4986007;28;114313;-78
2023/08/05 00:42:28;;;;;;;7.13;4.18;;;21.80;59.40;;;;;;4985898;28;114539;-78
2023/08/05 00:44:55;;;;;;;7.80;4.95;;;21.80;57.60;;;;;;4985341;28;115592;-78
2023/08/05 00:47:22;;;;;;;6.25;3.95;;;21.80;58.20;;;;;;4986860;28;114646;-78
2023/08/05 00:49:50;;;;;;;8.20;6.20;;;21.80;57.20;;;;;;4986032;28;114456;-79
2023/08/05 00:52:18;;;;;;;8.45;5.80;;;21.80;58.70;;;;;;4985989;28;114172;-78
2023/08/05 00:54:46;;;;;;;7.32;4.88;;;21.80;59.10;;;;;;4985842;28;114899;-78
2023/08/05 00:57:13;;;;;;;9.82;6.05;;;21.80;57.50;;;;;;4986151;28;114734;-79
2023/08/05 00:59:40;;;;;;;7.55;5.38;;;21.80;58.10;;;;;;4985982;28;114420;-78
2023/08/05 01:02:07;;;;;;;7.82;4.97;;;21.70;58.60;;;;;;4986014;28;114183;-79
2023/08/05 01:04:34;;;;;;;8.80;5.38;;;21.70;58.70;;;;;;4986369;28;115042;-78
2023/08/05 01:07:02;;;;;;;7.88;4.50;;;21.60;59.30;;;;;;4985968;28;114816;-79
2023/08/05 01:09:30;;;;;;;10.75;5.43;;;21.50;58.20;;;;;;4985667;28;114391;-77
2023/08/05 01:11:57;;;;;;;6.72;4.53;;;21.50;59.50;;;;;;4986585;28;114322;-78
2023/08/05 01:14:24;;;;;;;7.03;4.95;;;21.60;58.50;;;;;;4967732;28;114931;-78
2023/08/05 01:16:51;;;;;;;8.35;5.20;;;21.70;58.70;;;;;;4985815;28;114846;-78
2023/08/05 01:19:22;;;;;;;7.57;4.65;;;21.70;58.90;;;;;;4986622;28;114303;-78
2023/08/05 01:22:10;;;;;;;9.05;5.18;;;21.70;58.20;;;;;;4985202;28;114360;-78
2023/08/05 01:24:58;;;;;;;7.93;5.38;;;21.70;59.10;;;;;;4984549;28;114986;-78
2023/08/05 01:27:25;;;;;;;8.93;5.82;;;21.70;58.50;;;;;;4984097;28;115953;-78
2023/08/05 01:29:53;;;;;;;7.93;4.95;;;21.70;59.80;;;;;;4985350;28;114370;-78
2023/08/05 01:32:20;;;;;;;7.82;5.20;;;21.70;58.90;;;;;;4985486;28;114497;-78
2023/08/05 01:34:47;;;;;;;9.52;6.40;;;21.70;59.00;;;;;;4984060;28;115404;-78
2023/08/05 01:37:14;;;;;;;7.43;5.30;;;21.60;60.60;;;;;;4984085;28;114838;-78
2023/08/05 01:39:41;;;;;;;9.10;6.50;;;21.50;59.20;;;;;;4984991;28;114241;-77
2023/08/05 01:42:09;;;;;;;8.18;6.05;;;21.60;60.70;;;;;;4968881;28;114265;-76
2023/08/05 01:44:36;;;;;;;8.80;5.13;;;21.50;60.60;;;;;;4984003;28;114913;-78
2023/08/05 01:47:03;;;;;;;7.90;5.50;;;21.50;59.80;;;;;;4985345;28;114547;-78
2023/08/05 01:49:30;;;;;;;9.52;5.45;;;21.40;60.30;;;;;;4984887;28;114459;-78
2023/08/05 01:51:57;;;;;;;6.10;4.38;;;21.40;59.20;;;;;;4984830;28;114403;-77
2023/08/05 01:54:24;;;;;;;10.85;6.47;;;21.40;58.80;;;;;;4985424;28;114956;-77
2023/08/05 01:56:51;;;;;;;7.72;4.95;;;21.40;60.80;;;;;;4967930;28;114852;-78
2023/08/05 01:59:18;;;;;;;10.10;5.28;;;21.40;59.70;;;;;;4968344;28;114374;-78
2023/08/05 02:01:46;;;;;;;8.40;6.47;;;21.40;59.70;;;;;;4984527;28;114294;-78
2023/08/05 02:04:13;;;;;;;8.70;5.30;;;21.50;60.40;;;;;;4967025;28;114806;-78
2023/08/05 02:06:41;;;;;;;10.00;7.32;;;21.40;58.40;;;;;;4984214;28;114781;-78
2023/08/05 02:09:08;;;;;;;10.82;6.55;;;21.50;61.20;;;;;;4986039;28;114657;-78
2023/08/05 02:11:35;;;;;;;8.68;5.97;;;21.40;60.60;;;;;;4985649;28;114249;-78
2023/08/05 02:14:02;;;;;;;8.25;4.53;;;21.30;60.30;;;;;;4983806;28;114927;-78
2023/08/05 02:16:33;;;;;;;7.55;5.22;;;21.30;59.60;;;;;;4983715;28;114661;-78
2023/08/05 02:19:00;;;;;;;8.15;5.30;;;21.30;59.30;;;;;;4984705;28;114240;-79
2023/08/05 02:21:28;;;;;;;8.35;5.68;;;21.30;59.60;;;;;;4986136;28;114244;-79
2023/08/05 02:23:56;;;;;;;6.85;5.47;;;21.30;59.80;;;;;;4983821;28;114972;-79
2023/08/05 02:26:23;;;;;;;11.10;6.00;;;21.30;60.10;;;;;;4984593;28;117290;-79
2023/08/05 02:28:50;;;;;;;7.30;5.30;;;21.30;60.80;;;;;;4984946;28;114374;-79
2023/08/05 02:31:17;;;;;;;9.05;4.80;;;21.30;60.20;;;;;;4984324;28;114536;-78
2023/08/05 02:33:44;;;;;;;8.60;5.18;;;21.40;59.30;;;;;;4983303;28;114884;-79
2023/08/05 02:36:11;;;;;;;8.60;5.03;;;21.40;60.30;;;;;;4984340;28;115005;-79
2023/08/05 02:38:39;;;;;;;9.27;6.32;;;21.40;59.80;;;;;;4985303;28;114246;-78
2023/08/05 02:41:07;;;;;;;5.63;4.40;;;21.40;61.20;;;;;;4985315;28;114356;-79
2023/08/05 02:43:34;;;;;;;6.80;4.82;;;21.40;59.20;;;;;;4983445;28;118376;-78
2023/08/05 02:46:01;;;;;;;8.07;5.03;;;21.40;60.00;;;;;;4967610;28;116336;-78
2023/08/05 02:48:28;;;;;;;7.45;5.25;;;21.40;58.90;;;;;;4987426;28;114090;-77
2023/08/05 02:50:55;;;;;;;7.47;4.80;;;21.40;59.90;;;;;;4988585;28;114294;-79
2023/08/05 02:53:23;;;;;;;8.18;5.60;;;21.50;58.70;;;;;;4986109;28;115316;-79
2023/08/05 02:55:50;;;;;;;8.85;6.30;;;21.50;59.60;;;;;;4970404;28;114569;-78
2023/08/05 02:58:17;;;;;;;6.72;4.53;;;21.50;60.80;;;;;;4988845;28;114503;-78
2023/08/05 03:00:46;;;;;;;7.28;4.88;;;21.50;58.70;;;;;;4970832;28;114425;-78
2023/08/05 03:03:15;;;;;;;9.27;5.60;;;21.50;58.60;;;;;;4986403;28;114569;-77
2023/08/05 03:05:43;;;;;;;8.13;5.40;;;21.50;60.00;;;;;;4986221;28;114937;-78
2023/08/05 03:08:13;;;;;;;9.68;6.70;;;21.50;59.80;;;;;;4970669;28;114067;-78
2023/08/05 03:10:42;;;;;;;8.00;5.72;;;21.50;61.30;;;;;;4971809;28;114333;-77
2023/08/05 03:13:09;;;;;;;6.53;4.35;;;21.40;59.60;;;;;;4969832;28;114919;-76
2023/08/05 03:15:37;;;;;;;9.15;6.43;;;21.50;59.40;;;;;;4986302;28;114753;-77
2023/08/05 03:18:12;;;;;;;9.52;5.55;;;21.40;60.40;;;;;;4986784;28;114349;-77
2023/08/05 03:20:39;;;;;;;6.15;4.70;;;21.40;60.20;;;;;;4987346;28;114335;-77
2023/08/05 03:23:11;;;;;;;9.10;5.47;;;21.40;59.80;;;;;;4990567;28;114371;-77
2023/08/05 03:25:39;;;;;;;9.18;5.15;;;21.50;59.80;;;;;;4987174;28;115571;-77
2023/08/05 03:28:07;;;;;;;8.07;5.38;;;21.50;60.00;;;;;;4970854;28;114177;-77
2023/08/05 03:30:39;;;;;;;8.70;5.43;;;21.40;59.80;;;;;;4987158;28;114235;-77
2023/08/05 03:33:09;;;;;;;9.45;6.80;;;21.40;60.10;;;;;;4986320;28;114947;-77
2023/08/05 03:35:41;;;;;;;6.15;4.43;;;21.40;61.80;;;;;;4990927;28;114638;-77
2023/08/05 03:38:09;;;;;;;7.35;4.93;;;21.40;59.80;;;;;;4988108;28;114276;-77
2023/08/05 03:40:37;;;;;;;9.45;5.78;;;21.40;59.50;;;;;;4988386;28;114383;-77
2023/08/05 03:43:04;;;;;;;8.95;5.30;;;21.40;60.80;;;;;;4986855;28;114970;-77
2023/08/05 03:45:31;;;;;;;8.07;5.50;;;21.30;59.70;;;;;;4986007;28;114357;-77
2023/08/05 03:47:58;;;;;;;7.75;5.78;;;21.30;60.70;;;;;;4986769;28;114126;-77
2023/08/05 03:50:28;;;;;;;10.27;5.65;;;21.30;60.80;;;;;;4987182;28;114360;-78
2023/08/05 03:52:55;;;;;;;10.50;6.53;;;21.20;60.70;;;;;;4985930;28;114960;-77
2023/08/05 03:55:23;;;;;;;9.57;6.25;;;21.20;62.30;;;;;;4987341;28;114148;-77
2023/08/05 03:57:50;;;;;;;11.23;7.00;;;21.10;61.80;;;;;;4986480;28;114443;-77
2023/08/05 04:00:17;;;;;;;9.27;7.80;;;20.90;62.70;;;;;;4986874;28;114252;-77
2023/08/05 04:02:44;;;;;;;11.00;7.63;;;20.80;63.90;;;;;;4985863;28;115034;-77
2023/08/05 04:05:12;;;;;;;9.00;4.80;;;20.70;64.10;;;;;;4985499;28;114602;-77
2023/08/05 04:07:40;;;;;;;10.82;7.20;;;20.60;62.70;;;;;;4986152;28;114264;-78
2023/08/05 04:10:07;;;;;;;12.55;7.82;;;20.40;64.40;;;;;;4986529;28;114319;-77
2023/08/05 04:12:35;;;;;;;7.82;5.85;;;20.30;65.10;;;;;;4986414;28;117469;-77
2023/08/05 04:15:04;;;;;;;10.10;6.88;;;20.20;64.40;;;;;;4986558;28;114648;-77
2023/08/05 04:17:32;;;;;;;9.93;6.57;;;20.20;65.20;;;;;;4987249;28;114346;-77
2023/08/05 04:20:00;;;;;;;9.07;6.53;;;20.20;64.50;;;;;;4987535;28;114702;-77
2023/08/05 04:22:27;;;;;;;9.57;6.05;;;20.10;65.00;;;;;;4968658;28;117533;-78
2023/08/05 04:24:54;;;;;;;9.88;5.72;;;20.20;64.40;;;;;;4986680;28;114645;-78
2023/08/05 04:27:22;;;;;;;7.65;6.15;;;20.20;64.70;;;;;;4969707;28;114456;-78
2023/08/05 04:29:49;;;;;;;10.43;6.22;;;20.20;64.20;;;;;;4969626;28;114169;-78
2023/08/05 04:32:17;;;;;;;7.45;5.00;;;20.10;64.70;;;;;;4985649;28;114967;-77
2023/08/05 04:34:44;;;;;;;8.60;5.55;;;20.00;64.60;;;;;;4984846;28;115136;-78
2023/08/05 04:37:16;;;;;;;8.15;5.30;;;20.00;64.80;;;;;;4985467;28;114478;-78
2023/08/05 04:39:43;;;;;;;9.45;5.25;;;20.00;64.70;;;;;;4986862;28;114276;-78
2023/08/05 04:42:11;;;;;;;8.70;5.70;;;20.10;64.50;;;;;;4985620;28;114987;-78
2023/08/05 04:44:40;;;;;;;7.97;5.20;;;20.10;64.40;;;;;;4985788;28;114765;-78
2023/08/05 04:47:10;;;;;;;9.35;5.85;;;20.10;64.30;;;;;;4985907;28;114313;-79
2023/08/05 04:49:41;;;;;;;10.60;5.60;;;20.20;64.90;;;;;;4987232;28;114413;-77
2023/08/05 04:52:08;;;;;;;10.18;5.35;;;20.20;64.70;;;;;;4985920;28;114956;-77
2023/08/05 04:54:37;;;;;;;6.38;4.55;;;20.00;64.80;;;;;;4985587;28;114868;-77
2023/08/05 04:57:05;;;;;;;7.07;4.85;;;20.00;64.10;;;;;;4986488;28;114187;-77
2023/08/05 04:59:32;;;;;;;8.23;5.20;;;20.00;64.40;;;;;;4985565;28;114292;-78
2023/08/05 05:01:59;;;;;;;6.93;5.07;;;20.00;64.50;;;;;;4984508;28;114877;-78
2023/08/05 05:04:26;;;;;;;7.10;5.38;;;20.00;65.00;;;;;;4984634;28;114609;-79
2023/08/05 05:06:54;;;;;;;8.07;5.53;;;19.80;64.70;;;;;;4985321;28;114353;-78
2023/08/05 05:09:21;;;;;;;7.95;4.85;;;19.90;65.30;;;;;;4984954;28;114311;-79
2023/08/05 05:11:48;;;;;;;7.07;5.05;;;19.80;65.00;;;;;;4984478;28;114888;-76
2023/08/05 05:14:15;;;;;;;7.32;4.60;;;19.90;64.70;;;;;;4984627;28;114848;-78
2023/08/05 05:16:42;;;;;;;8.82;5.10;;;19.90;64.70;;;;;;4985468;28;114203;-78
2023/08/05 05:19:09;;;;;;;9.18;5.10;;;19.80;64.90;;;;;;4986386;28;114424;-77
2023/08/05 05:21:36;;;;;;;9.02;4.88;;;19.80;65.20;;;;;;4983798;28;114916;-77
2023/08/05 05:24:04;;;;;;;7.95;4.13;;;19.90;65.30;;;;;;4985571;28;114625;-78
2023/08/05 05:26:31;;;;;;;8.75;4.35;;;19.90;64.80;;;;;;4985035;28;114388;-78
2023/08/05 05:28:58;;;;;;;8.45;4.78;;;20.00;64.70;;;;;;4985162;28;114746;-78
2023/08/05 05:31:25;;;;;;;6.70;4.43;;;19.90;64.60;;;;;;4985461;28;114960;-77
2023/08/05 05:33:54;;;;;;;6.43;4.20;;;20.00;64.50;;;;;;4984215;28;114633;-78
2023/08/05 05:36:21;;;;;;;6.43;4.50;;;20.10;64.30;;;;;;4971426;28;114455;-77
2023/08/05 05:38:48;;;;;;;6.20;4.30;;;20.10;63.80;;;;;;4985445;28;114332;-78
2023/08/05 05:41:16;;;;;;;8.13;4.45;;;20.20;63.80;;;;;;4984790;28;115022;-78
2023/08/05 05:43:53;;;;;;;8.15;4.80;;;20.20;64.20;;;;;;4984183;28;114545;-78
2023/08/05 05:46:21;;;;;;;7.45;4.57;;;20.10;64.20;;;;;;4985480;28;114323;-78
2023/08/05 05:48:48;;;;;;;6.95;4.30;;;20.00;64.70;;;;;;4985985;28;114297;-78
2023/08/05 05:51:15;;;;;;;6.85;4.18;;;19.90;64.60;;;;;;4984931;28;116355;-78
2023/08/05 05:53:42;;;;;;;8.23;5.20;;;19.80;64.80;;;;;;4967334;28;117893;-79
2023/08/05 05:56:09;;;;;;;8.35;4.38;;;19.80;65.20;;;;;;4985708;28;114103;-79
2023/08/05 05:58:36;;;;;;;8.10;4.68;;;19.80;65.10;;;;;;4985874;28;114268;-79
2023/08/05 06:01:04;;;;;;;6.85;5.00;;;19.80;65.60;;;;;;4985114;28;115040;-78
2023/08/05 06:03:33;;;;;;;7.68;4.95;;;19.60;65.80;;;;;;4985440;28;114652;-78
2023/08/05 06:06:01;;;;;;;7.65;5.78;;;19.50;66.10;;;;;;4969154;28;114155;-78
2023/08/05 06:08:28;;;;;;;7.10;4.80;;;19.50;66.70;;;;;;4984912;28;114423;-78
2023/08/05 06:10:55;;;;;;;7.38;4.95;;;19.40;66.40;;;;;;4983188;28;115447;-78
2023/08/05 06:13:22;;;;;;;7.35;4.53;;;19.40;66.40;;;;;;4984888;28;114586;-78
2023/08/05 06:15:52;;;;;;;6.85;4.97;;;19.40;66.40;;;;;;4985924;28;114533;-78
2023/08/05 06:18:19;;;;;;;7.60;4.70;;;19.40;66.50;;;;;;4968904;28;114417;-79
2023/08/05 06:20:49;;;;;;;7.25;4.60;;;19.50;66.80;;;;;;4983752;28;115002;-78
2023/08/05 06:23:19;;;;;;;8.13;5.75;;;19.50;66.80;;;;;;4987794;28;114522;-77
2023/08/05 06:25:46;;;;;;;6.95;4.40;;;19.40;66.80;;;;;;4989434;28;114425;-78
2023/08/05 06:28:13;;;;;;;8.15;4.53;;;19.30;66.80;;;;;;4989599;28;114215;-77
2023/08/05 06:30:45;;;;;;;8.30;5.15;;;19.30;67.00;;;;;;4987579;28;114449;-78
2023/08/05 06:33:12;;;;;;;7.60;4.45;;;19.30;67.00;;;;;;4987340;28;114557;-77
2023/08/05 06:35:39;;;;;;;7.65;4.82;;;19.30;66.80;;;;;;4988239;28;114298;-78
2023/08/05 06:38:07;;;;;;;8.52;4.53;;;19.40;66.60;;;;;;4989141;28;114304;-78
2023/08/05 06:40:34;;;;;;;8.15;5.75;;;19.30;66.90;;;;;;4972823;28;116160;-77
2023/08/05 06:43:01;;;;;;;9.48;6.28;;;19.40;67.30;;;;;;4988070;28;114605;-78
2023/08/05 06:45:28;;;;;;;9.43;6.20;;;19.30;67.80;;;;;;4988966;28;114280;-77
2023/08/05 06:47:55;;;;;;;8.23;5.43;;;19.30;67.70;;;;;;4987649;28;114244;-77
2023/08/05 06:50:22;;;;;;;5.43;4.10;;;19.30;67.60;;;;;;4988038;28;115541;-77
2023/08/05 06:52:49;;;;;;;6.75;5.18;;;19.30;67.50;;;;;;4988041;28;114485;-78
2023/08/05 06:55:19;;;;;;;8.98;5.70;;;19.30;67.40;;;;;;4987568;28;114387;-78
2023/08/05 06:57:49;;;;;;;8.10;5.75;;;19.40;67.20;;;;;;4988733;28;114251;-78
2023/08/05 07:00:17;;;;;;;7.85;5.30;;;19.40;67.30;;;;;;4988038;28;114844;-78
2023/08/05 07:02:44;;;;;;;8.60;5.28;;;19.40;67.50;;;;;;4987787;28;114645;-78
2023/08/05 07:05:11;;;;;;;8.63;5.57;;;19.40;67.30;;;;;;4988846;28;114368;-78
2023/08/05 07:07:38;;;;;;;7.65;5.22;;;19.40;67.30;;;;;;4988663;28;114371;-78
2023/08/05 07:10:08;;;;;;;6.10;4.70;;;19.40;67.30;;;;;;4970293;28;115064;-77
2023/08/05 07:12:35;;;;;;;6.72;5.15;;;19.30;67.30;;;;;;4987313;28;114663;-78
2023/08/05 07:15:03;;;;;;;8.38;5.40;;;19.40;67.30;;;;;;4986954;28;114226;-79
2023/08/05 07:17:31;;;;;;;7.40;4.80;;;19.40;67.60;;;;;;4988907;28;114047;-78
2023/08/05 07:19:59;;;;;;;7.13;4.90;;;19.50;67.00;;;;;;4987018;28;116188;-77
2023/08/05 07:22:26;;;;;;;8.50;5.65;;;19.50;67.30;;;;;;4987324;28;115166;-78
2023/08/05 07:24:54;;;;;;;7.03;4.70;;;19.60;67.20;;;;;;4986334;28;114466;-78
2023/08/05 07:27:21;;;;;;;6.22;4.22;;;19.60;66.70;;;;;;4970726;28;114382;-77
2023/08/05 07:29:48;;;;;;;7.85;4.95;;;19.70;66.60;;;;;;4985893;28;116075;-78
2023/08/05 07:32:16;;;;;;;8.32;5.63;;;19.80;66.70;;;;;;4985524;28;114965;-79
2023/08/05 07:34:43;;;;;;;9.07;5.72;;;19.70;67.10;;;;;;4986455;28;114188;-78
2023/08/05 07:37:14;;;;;;;7.60;4.90;;;19.70;67.10;;;;;;4987560;28;114254;-78
2023/08/05 07:39:46;;;;;;;8.13;5.28;;;19.60;67.00;;;;;;4985851;28;115405;-78
2023/08/05 07:42:15;;;;;;;6.78;4.70;;;19.60;67.10;;;;;;4986061;28;114874;-78
2023/08/05 07:44:42;;;;;;;8.40;5.65;;;19.60;66.70;;;;;;4985074;28;114278;-78
2023/08/05 07:47:10;;;;;;;7.10;4.75;;;19.50;67.40;;;;;;4987581;28;114282;-79
2023/08/05 07:49:37;;;;;;;8.10;5.00;;;19.60;66.90;;;;;;4986322;28;115587;-78
2023/08/05 07:52:06;;;;;;;6.80;4.97;;;19.60;66.90;;;;;;4986827;28;114834;-78
2023/08/05 07:54:33;;;;;;;8.20;4.60;;;19.60;66.60;;;;;;4987315;28;114317;-77
2023/08/05 07:57:01;;;;;;;6.63;4.95;;;19.70;66.50;;;;;;4970098;28;114525;-79
2023/08/05 07:59:28;;;;;;;10.93;6.93;;;19.60;66.30;;;;;;4986825;28;115157;-78
2023/08/05 08:01:56;;;;;;;8.18;6.05;;;19.70;67.20;;;;;;4985284;28;116693;-78
2023/08/05 08:04:23;;;;;;;7.82;5.85;;;19.70;67.00;;;;;;4986562;28;114390;-79
2023/08/05 08:06:52;;;;;;;7.35;5.60;;;19.70;67.00;;;;;;4987764;28;114401;-77
2023/08/05 08:09:19;;;;;;;8.30;5.75;;;19.70;66.60;;;;;;4986719;28;114977;-78
2023/08/05 08:11:46;;;;;;;6.65;4.97;;;19.60;66.60;;;;;;4986302;28;114708;-78
2023/08/05 08:14:13;;;;;;;7.80;5.60;;;19.70;66.40;;;;;;4986783;28;114223;-78
2023/08/05 08:16:40;;;;;;;8.15;5.80;;;19.70;66.70;;;;;;4986407;28;114387;-79
2023/08/05 08:19:08;;;;;;;9.13;5.60;;;19.60;66.60;;;;;;4986415;28;115434;-77
2023/08/05 08:21:35;;;;;;;8.88;7.00;;;19.60;66.60;;;;;;4986271;28;115962;-78
2023/08/05 08:24:03;;;;;;;8.82;5.05;;;19.70;66.90;;;;;;4987331;28;114202;-77
2023/08/05 08:26:30;;;;;;;9.32;6.82;;;19.70;66.20;;;;;;4986960;28;114336;-78
2023/08/05 08:28:57;;;;;;;8.05;5.43;;;19.80;66.00;;;;;;4968600;28;115227;-79
2023/08/05 08:31:29;;;;;;;8.38;6.00;;;19.80;66.10;;;;;;4986524;28;116761;-78
2023/08/05 08:33:57;;;;;;;8.27;6.13;;;19.80;66.20;;;;;;4986940;28;114781;-77
2023/08/05 08:36:24;;;;;;;7.63;5.75;;;19.80;66.10;;;;;;4986551;28;114485;-78
2023/08/05 08:38:52;;;;;;;8.40;6.35;;;19.80;66.00;;;;;;4985382;28;115437;-78
2023/08/05 08:41:19;;;;;;;6.82;5.35;;;19.90;66.20;;;;;;4985934;28;114776;-78
2023/08/05 08:43:47;;;;;;;7.40;5.32;;;20.00;65.50;;;;;;4985033;28;114206;-79
2023/08/05 08:46:14;;;;;;;7.55;4.88;;;20.10;65.40;;;;;;4985760;28;114364;-80
2023/08/05 08:48:41;;;;;;;7.15;6.07;;;20.10;65.00;;;;;;4985743;28;115124;-77
2023/08/05 08:51:09;;;;;;;9.10;6.25;;;20.10;65.40;;;;;;4985173;28;114640;-80
2023/08/05 08:53:36;;;;;;;8.20;6.13;;;20.00;65.60;;;;;;4987179;28;114174;-78
2023/08/05 08:56:03;;;;;;;8.35;6.05;;;19.90;65.90;;;;;;4989354;28;114540;-79
2023/08/05 08:58:30;;;;;;;8.07;5.90;;;20.00;65.90;;;;;;4986887;28;115489;-77
2023/08/05 09:00:57;;;;;;;7.85;5.88;;;20.00;65.70;;;;;;4986307;28;114039;-78
2023/08/05 09:03:27;;;;;;;7.00;5.97;;;20.00;66.00;;;;;;4985715;28;114202;-77
2023/08/05 09:05:56;;;;;;;8.70;6.70;;;19.90;66.00;;;;;;4987199;28;114221;-79
2023/08/05 09:08:23;;;;;;;8.82;6.43;;;19.90;66.20;;;;;;4985484;28;115055;-78
2023/08/05 09:10:50;;;;;;;8.65;5.80;;;19.90;65.90;;;;;;4985578;28;114708;-79
2023/08/05 09:13:19;;;;;;;9.10;6.65;;;20.00;65.80;;;;;;4987472;28;114264;-78
2023/08/05 09:15:47;;;;;;;9.13;7.68;;;20.00;66.00;;;;;;4987235;28;114231;-79
2023/08/05 09:18:14;;;;;;;8.85;6.57;;;20.10;66.10;;;;;;4986003;28;114164;-78
2023/08/05 09:20:41;;;;;;;10.82;8.30;;;20.00;65.60;;;;;;4986446;28;114615;-79
2023/08/05 09:23:09;;;;;;;10.27;6.47;;;20.00;66.10;;;;;;4986991;28;114252;-77
2023/08/05 09:25:40;;;;;;;7.07;5.47;;;19.80;66.00;;;;;;4985157;28;114305;-78
2023/08/05 09:28:08;;;;;;;8.50;6.35;;;19.80;65.80;;;;;;4985231;28;114934;-78
2023/08/05 09:30:35;;;;;;;8.82;7.93;;;19.80;66.00;;;;;;4984212;28;114573;-79
2023/08/05 09:33:02;;;;;;;9.00;7.60;;;19.90;66.30;;;;;;4985269;28;114929;-79
2023/08/05 09:35:30;;;;;;;8.30;7.38;;;19.90;66.30;;;;;;4985021;28;114454;-79
2023/08/05 09:37:57;;;;;;;9.25;6.80;;;19.90;66.40;;;;;;4985685;28;114861;-78
2023/08/05 09:40:29;;;;;;;9.43;6.68;;;19.80;66.20;;;;;;4984363;28;114652;-78
2023/08/05 09:42:59;;;;;;;10.30;6.68;;;20.00;66.30;;;;;;4968609;28;114177;-78
2023/08/05 09:45:28;;;;;;;11.07;8.65;;;20.00;65.90;;;;;;4985277;28;114099;-78
2023/08/05 09:48:03;;;;;;;8.77;7.63;;;20.00;66.30;;;;;;4984016;28;114893;-78
2023/08/05 09:50:31;;;;;;;9.00;6.88;;;20.00;65.90;;;;;;4984194;28;115179;-79
2023/08/05 09:53:08;;;;;;;10.70;8.23;;;20.10;65.70;;;;;;4984353;28;114129;-79
2023/08/05 09:56:15;;;;;;;10.45;7.35;;;20.10;65.50;;;;;;4983199;28;114429;-77
2023/08/05 09:58:43;;;;;;;10.60;8.85;;;20.00;65.80;;;;;;4987360;28;114910;-79
2023/08/05 10:01:11;;;;;;;9.23;7.38;;;20.10;66.10;;;;;;4987464;28;114586;-80
2023/08/05 10:03:38;;;;;;;13.75;10.85;;;20.10;65.50;;;;;;4988240;28;114298;-79
2023/08/05 10:06:06;;;;;;;13.90;11.68;;;20.10;66.40;;;;;;4955605;28;114331;-79
2023/08/05 10:08:35;;;;;;;13.00;10.10;;;20.00;66.80;;;;;;4987313;28;115137;-77
2023/08/05 10:11:03;;;;;;;10.55;9.35;;;19.90;67.10;;;;;;4988800;28;114707;-78
2023/08/05 10:13:32;;;;;;;12.57;9.70;;;19.90;66.90;;;;;;4988305;28;114252;-77
2023/08/05 10:15:59;;;;;;;12.32;9.73;;;19.90;66.70;;;;;;4987900;28;114330;-78
2023/08/05 10:18:26;;;;;;;10.38;8.18;;;19.90;66.80;;;;;;4986681;28;115333;-77
2023/08/05 10:20:54;;;;;;;12.05;10.18;;;20.00;66.40;;;;;;4970775;28;114738;-77
2023/08/05 10:23:24;;;;;;;12.05;8.32;;;20.10;66.50;;;;;;4988051;28;114426;-78
2023/08/05 10:25:57;;;;;;;15.93;12.70;;;20.20;65.80;;;;;;4988842;28;114556;-79
2023/08/05 10:28:24;;;;;;;13.10;11.17;;;20.20;66.90;;;;;;4971184;28;116140;-77
2023/08/05 10:30:52;;;;;;;13.77;10.65;;;20.10;66.90;;;;;;4986864;28;114935;-79
2023/08/05 10:33:19;;;;;;;11.32;10.13;;;20.20;66.50;;;;;;4989013;28;114216;-78
2023/08/05 10:35:46;;;;;;;14.65;11.85;;;20.30;65.80;;;;;;4988982;28;114247;-78
2023/08/05 10:38:20;;;;;;;12.70;10.80;;;20.30;66.30;;;;;;4987745;28;114971;-80
2023/08/05 10:40:55;;;;;;;13.07;10.45;;;20.40;65.60;;;;;;4988040;28;114795;-79
2023/08/05 10:43:35;;;;;;;11.52;9.65;;;20.30;66.00;;;;;;4988356;28;114199;-77
2023/08/05 10:46:05;;;;;;;12.82;9.80;;;20.30;65.90;;;;;;4987567;28;114720;-76
2023/08/05 10:48:38;;;;;;;12.13;10.90;;;20.20;65.80;;;;;;4987973;28;114876;-78
2023/08/05 10:51:10;;;;;;;11.95;9.50;;;20.30;66.00;;;;;;4988027;28;114543;-77
2023/08/05 10:53:37;;;;;;;11.05;9.70;;;20.30;65.90;;;;;;4988516;28;114148;-78
2023/08/05 10:56:08;;;;;;;12.25;10.45;;;20.20;66.00;;;;;;4987358;28;114661;-78
2023/08/05 10:58:37;;;;;;;14.90;11.45;;;20.30;66.40;;;;;;4987780;28;115197;-79
2023/08/05 11:01:04;;;;;;;11.15;8.73;;;20.30;66.40;;;;;;4986922;28;114648;-79
2023/08/05 11:03:42;;;;;;;12.50;10.35;;;20.30;65.70;;;;;;4986700;28;114529;-77
2023/08/05 11:06:10;;;;;;;17.23;13.63;;;20.40;65.80;;;;;;4988602;28;114149;-78
2023/08/05 11:08:38;;;;;;;13.45;10.55;;;20.50;66.00;;;;;;4986108;28;115311;-77
2023/08/05 11:11:07;;;;;;;14.68;11.70;;;20.50;65.40;;;;;;4986220;28;114999;-80
2023/08/05 11:13:38;;;;;;;12.80;11.40;;;20.60;65.60;;;;;;4987210;28;114345;-77
2023/08/05 11:16:17;;;;;;;11.20;10.10;;;20.50;65.60;;;;;;4987057;28;114270;-79
2023/08/05 11:18:54;;;;;;;14.43;12.45;;;20.50;65.20;;;;;;4987051;28;116242;-78
2023/08/05 11:21:21;;;;;;;13.27;11.88;;;20.40;66.00;;;;;;4986231;28;114590;-79
2023/08/05 11:23:48;;;;;;;13.38;11.85;;;20.40;66.20;;;;;;4986775;28;114514;-78
2023/08/05 11:26:16;;;;;;;13.35;11.38;;;20.40;66.10;;;;;;4988410;28;114236;-79
2023/08/05 11:28:44;;;;;;;12.80;10.93;;;20.40;65.80;;;;;;4953185;28;116282;-78
2023/08/05 11:31:24;;;;;;;14.20;12.02;;;20.40;65.90;;;;;;4987097;28;114132;-78
2023/08/05 11:33:52;;;;;;;12.20;10.82;;;20.50;66.30;;;;;;4986406;28;114342;-80
2023/08/05 11:36:26;;;;;;;15.40;13.07;;;20.40;65.90;;;;;;4987806;28;114634;-77
2023/08/05 11:38:57;;;;;;;15.90;11.45;;;20.40;66.40;;;;;;4987048;28;114893;-79
2023/08/05 11:41:25;;;;;;;10.73;9.52;;;20.30;66.20;;;;;;4987101;28;114601;-78
2023/08/05 11:43:53;;;;;;;14.48;11.15;;;20.30;65.60;;;;;;4987997;28;114098;-78
2023/08/05 11:46:28;;;;;;;17.17;13.52;;;20.30;66.10;;;;;;4987452;28;114409;-77
2023/08/05 11:49:11;;;;;;;12.82;10.45;;;20.40;66.30;;;;;;4986727;28;114968;-78
2023/08/05 11:51:49;;;;;;;13.85;11.00;;;20.40;65.80;;;;;;4987584;28;114873;-78
2023/08/05 11:54:31;;;;;;;16.50;13.82;;;20.50;65.50;;;;;;4986567;28;114314;-80
2023/08/05 11:56:59;;;;;;;14.90;10.98;;;20.50;65.90;;;;;;4987906;28;114260;-78
2023/08/05 11:59:45;;;;;;;17.25;14.10;;;20.50;65.30;;;;;;4986608;28;114975;-79
2023/08/05 12:02:16;;;;;;;15.68;12.95;;;20.60;66.10;;;;;;4986288;28;114772;-79
2023/08/05 12:04:45;;;;;;;14.98;13.27;;;20.50;66.00;;;;;;4987616;28;114278;-78
2023/08/05 12:07:13;;;;;;;17.27;13.40;;;20.50;66.30;;;;;;4987622;28;114228;-77
2023/08/05 12:09:40;;;;;;;13.68;11.82;;;20.40;66.40;;;;;;4986765;28;115643;-78
2023/08/05 12:12:20;;;;;;;16.45;14.52;;;20.40;66.00;;;;;;4986369;28;115989;-78
2023/08/05 12:14:47;;;;;;;12.57;11.25;;;20.40;66.30;;;;;;4986144;28;114459;-78
2023/08/05 12:17:14;;;;;;;17.02;13.63;;;20.40;66.30;;;;;;4987439;28;114353;-78
2023/08/05 12:19:41;;;;;;;16.33;13.05;;;20.40;66.70;;;;;;4985189;28;115177;-78
2023/08/05 12:22:09;;;;;;;15.45;12.13;;;20.40;66.60;;;;;;4968619;28;114604;-78
2023/08/05 12:24:36;;;;;;;10.88;9.73;;;20.40;66.00;;;;;;4987021;28;114475;-79
2023/08/05 12:27:03;;;;;;;12.07;10.40;;;20.50;65.30;;;;;;4987364;28;114454;-78
2023/08/05 12:29:30;;;;;;;12.40;11.00;;;20.70;65.00;;;;;;4986301;28;115097;-78
2023/08/05 12:31:58;;;;;;;12.45;10.70;;;20.80;65.20;;;;;;4968993;28;115098;-79
2023/08/05 12:34:25;;;;;;;13.40;10.23;;;20.90;64.60;;;;;;4986107;28;114240;-79
2023/08/05 12:36:52;;;;;;;11.73;10.52;;;20.90;64.30;;;;;;4986681;28;114277;-77
2023/08/05 12:39:19;;;;;;;12.07;10.50;;;20.90;64.10;;;;;;4969420;28;115151;-78